Portada
METAR-TAF:

METAR-TAF

Aeroports :

Busan, Corea del Sud

latitud: 35-11N, longitud: 128-56E, altitud: 4 m

Observació

L'informe es va fer fa 15 minuts, a les 04:00 UTC
Vent 12 kt del Nord-Oest
Temperatura 21°C
Humitat 46%
Pressió 1003 hPa
Visibilitat 10 km o més
sense núvols per sota de 1500 mi sense presència de cumulonimbus.

METAR: RKPK 210400Z 31012KT CAVOK 21/09 Q1003

Hora: 13:15 (04:15 UTC)

Pronòstic

L'informe es va fer fa 5 hores i 15 minuts, a les 23:00 UTC
Pronòstic vàlid del 21 a les 00 UTC al 22 a les 06 UTC
Vent 6 kt del Sud/Sud-Oest
Visibilitat 10 km o més
Núvols disperses a una alçada de 3000 ft
Núvols disperses a una alçada de 20000 ft
Evolucionant progressivament
l' 21 a les 03 UTC al 21 a les 04 UTC
Vent 18 kt del Oest/Nord-Oest

TAF: RKPK 202300Z 2100/2206 21006KT 9999 SCT030 SCT200 TX21/2106Z TN05/2121Z BECMG 2103/2104 30018KT

Observacions i pronòstics meteorològics de més de 4000 aeroports (METAR i TAF).

Les estacions disponibles són els punts grocs i vermells al mapa.

Posi el ratolí al punt desitjat per veure el nom de l'estació.

Feu clic per veure les observacions i els pronòstics meteorològics.

Per canviar el mapa: feu clic els botons verds amb una creu de color negre per apropar; al botó verd amb un guió per allunyar la imatge; o en les fletxes verdes per a mapes adjacents.


METAR-TAF: